sensor_id;sensor_type;location;lat;lon;timestamp;temperature;humidity
71096;DHT22;58753;49.440;11.126;2022-08-01T00:02:04;18.36;70.51
71096;DHT22;58753;49.440;11.126;2022-08-01T00:04:29;18.34;70.52
71096;DHT22;58753;49.440;11.126;2022-08-01T00:06:55;18.30;70.35
71096;DHT22;58753;49.440;11.126;2022-08-01T00:09:20;18.22;70.23
71096;DHT22;58753;49.440;11.126;2022-08-01T00:11:45;18.17;70.60
71096;DHT22;58753;49.440;11.126;2022-08-01T00:14:11;18.12;70.79
71096;DHT22;58753;49.440;11.126;2022-08-01T00:16:36;18.06;70.79
71096;DHT22;58753;49.440;11.126;2022-08-01T00:19:02;18.03;71.07
71096;DHT22;58753;49.440;11.126;2022-08-01T00:21:28;18.02;71.04
71096;DHT22;58753;49.440;11.126;2022-08-01T00:23:53;17.97;71.22
71096;DHT22;58753;49.440;11.126;2022-08-01T00:26:19;17.92;71.54
71096;DHT22;58753;49.440;11.126;2022-08-01T00:28:44;17.89;71.79
71096;DHT22;58753;49.440;11.126;2022-08-01T00:31:10;17.87;72.14
71096;DHT22;58753;49.440;11.126;2022-08-01T00:33:35;17.85;72.30
71096;DHT22;58753;49.440;11.126;2022-08-01T00:36:00;17.81;72.23
71096;DHT22;58753;49.440;11.126;2022-08-01T00:38:26;17.78;72.25
71096;DHT22;58753;49.440;11.126;2022-08-01T00:40:51;17.76;72.29
71096;DHT22;58753;49.440;11.126;2022-08-01T00:43:16;17.68;72.33
71096;DHT22;58753;49.440;11.126;2022-08-01T00:45:42;17.68;72.32
71096;DHT22;58753;49.440;11.126;2022-08-01T00:48:07;17.62;72.47
71096;DHT22;58753;49.440;11.126;2022-08-01T00:50:33;17.56;72.68
71096;DHT22;58753;49.440;11.126;2022-08-01T00:52:59;17.54;72.94
71096;DHT22;58753;49.440;11.126;2022-08-01T01:01:53;17.35;73.23
71096;DHT22;58753;49.440;11.126;2022-08-01T01:04:18;17.34;73.40
71096;DHT22;58753;49.440;11.126;2022-08-01T01:07:17;17.31;73.50
71096;DHT22;58753;49.440;11.126;2022-08-01T01:12:37;17.24;73.89
71096;DHT22;58753;49.440;11.126;2022-08-01T01:15:18;17.21;73.97
71096;DHT22;58753;49.440;11.126;2022-08-01T01:20:16;17.18;74.18
71096;DHT22;58753;49.440;11.126;2022-08-01T01:22:50;17.14;74.31
71096;DHT22;58753;49.440;11.126;2022-08-01T01:28:23;17.04;74.40
71096;DHT22;58753;49.440;11.126;2022-08-01T01:30:53;17.03;74.76
71096;DHT22;58753;49.440;11.126;2022-08-01T01:33:21;16.99;74.97
71096;DHT22;58753;49.440;11.126;2022-08-01T01:35:52;16.99;74.99
71096;DHT22;58753;49.440;11.126;2022-08-01T01:38:21;16.99;75.12
71096;DHT22;58753;49.440;11.126;2022-08-01T01:40:49;16.95;74.99
71096;DHT22;58753;49.440;11.126;2022-08-01T01:43:16;16.94;75.10
71096;DHT22;58753;49.440;11.126;2022-08-01T01:45:44;16.95;75.27
71096;DHT22;58753;49.440;11.126;2022-08-01T01:48:13;16.93;75.01
71096;DHT22;58753;49.440;11.126;2022-08-01T01:50:40;16.91;75.33
71096;DHT22;58753;49.440;11.126;2022-08-01T01:53:06;16.94;75.33
71096;DHT22;58753;49.440;11.126;2022-08-01T01:55:34;16.97;75.43
71096;DHT22;58753;49.440;11.126;2022-08-01T01:58:00;17.01;75.41
71096;DHT22;58753;49.440;11.126;2022-08-01T02:00:27;17.00;75.34
71096;DHT22;58753;49.440;11.126;2022-08-01T02:02:55;17.01;75.30
71096;DHT22;58753;49.440;11.126;2022-08-01T02:05:22;17.01;75.27
71096;DHT22;58753;49.440;11.126;2022-08-01T02:07:48;17.01;75.40
71096;DHT22;58753;49.440;11.126;2022-08-01T02:10:15;17.04;75.41
71096;DHT22;58753;49.440;11.126;2022-08-01T02:12:43;17.06;75.24
71096;DHT22;58753;49.440;11.126;2022-08-01T02:25:08;17.10;75.38
71096;DHT22;58753;49.440;11.126;2022-08-01T02:27:43;17.06;75.34
71096;DHT22;58753;49.440;11.126;2022-08-01T02:30:12;17.08;75.80
71096;DHT22;58753;49.440;11.126;2022-08-01T02:33:07;17.10;75.87
71096;DHT22;58753;49.440;11.126;2022-08-01T02:44:38;17.17;75.81
71096;DHT22;58753;49.440;11.126;2022-08-01T02:47:05;17.13;75.67
71096;DHT22;58753;49.440;11.126;2022-08-01T02:49:33;17.10;75.76
71096;DHT22;58753;49.440;11.126;2022-08-01T02:52:02;17.07;75.93
71096;DHT22;58753;49.440;11.126;2022-08-01T02:54:29;17.01;75.99
71096;DHT22;58753;49.440;11.126;2022-08-01T02:56:56;16.97;76.14
71096;DHT22;58753;49.440;11.126;2022-08-01T02:59:23;16.90;76.50
71096;DHT22;58753;49.440;11.126;2022-08-01T03:01:55;16.81;76.72
71096;DHT22;58753;49.440;11.126;2022-08-01T03:04:22;16.80;77.05
71096;DHT22;58753;49.440;11.126;2022-08-01T03:06:48;16.73;76.98
71096;DHT22;58753;49.440;11.126;2022-08-01T03:09:15;16.70;77.33
71096;DHT22;58753;49.440;11.126;2022-08-01T03:11:43;16.66;77.25
71096;DHT22;58753;49.440;11.126;2022-08-01T03:14:10;16.60;77.23
71096;DHT22;58753;49.440;11.126;2022-08-01T03:16:38;16.56;77.51
71096;DHT22;58753;49.440;11.126;2022-08-01T03:19:07;16.56;77.62
71096;DHT22;58753;49.440;11.126;2022-08-01T03:21:34;16.53;77.44
71096;DHT22;58753;49.440;11.126;2022-08-01T03:24:01;16.46;77.42
71096;DHT22;58753;49.440;11.126;2022-08-01T03:26:31;16.45;77.66
71096;DHT22;58753;49.440;11.126;2022-08-01T03:28:59;16.45;77.70
71096;DHT22;58753;49.440;11.126;2022-08-01T03:31:27;16.39;77.64
71096;DHT22;58753;49.440;11.126;2022-08-01T03:33:53;16.36;77.84
71096;DHT22;58753;49.440;11.126;2022-08-01T03:36:21;16.32;77.96
71096;DHT22;58753;49.440;11.126;2022-08-01T03:38:50;16.32;78.15
71096;DHT22;58753;49.440;11.126;2022-08-01T03:41:21;16.29;78.07
71096;DHT22;58753;49.440;11.126;2022-08-01T03:43:56;16.28;78.14
71096;DHT22;58753;49.440;11.126;2022-08-01T03:46:26;16.25;78.20
71096;DHT22;58753;49.440;11.126;2022-08-01T03:48:55;16.25;78.33
71096;DHT22;58753;49.440;11.126;2022-08-01T03:51:24;16.23;78.32
71096;DHT22;58753;49.440;11.126;2022-08-01T03:53:50;16.22;78.39
71096;DHT22;58753;49.440;11.126;2022-08-01T03:56:18;16.19;78.35
71096;DHT22;58753;49.440;11.126;2022-08-01T03:58:46;16.18;78.67
71096;DHT22;58753;49.440;11.126;2022-08-01T04:01:12;16.16;78.63
71096;DHT22;58753;49.440;11.126;2022-08-01T04:03:38;16.15;78.82
71096;DHT22;58753;49.440;11.126;2022-08-01T04:06:05;16.18;78.96
71096;DHT22;58753;49.440;11.126;2022-08-01T04:08:37;16.20;78.92
71096;DHT22;58753;49.440;11.126;2022-08-01T04:11:03;16.23;78.86
71096;DHT22;58753;49.440;11.126;2022-08-01T04:13:29;16.20;78.73
71096;DHT22;58753;49.440;11.126;2022-08-01T04:15:55;16.25;78.98
71096;DHT22;58753;49.440;11.126;2022-08-01T04:23:11;16.34;78.64
71096;DHT22;58753;49.440;11.126;2022-08-01T04:25:37;16.34;78.61
71096;DHT22;58753;49.440;11.126;2022-08-01T04:28:05;16.40;78.77
71096;DHT22;58753;49.440;11.126;2022-08-01T04:30:37;16.48;78.87
71096;DHT22;58753;49.440;11.126;2022-08-01T04:33:06;16.56;78.85
71096;DHT22;58753;49.440;11.126;2022-08-01T04:35:33;16.63;78.88
71096;DHT22;58753;49.440;11.126;2022-08-01T04:38:01;16.67;78.66
71096;DHT22;58753;49.440;11.126;2022-08-01T04:40:28;16.76;78.86
71096;DHT22;58753;49.440;11.126;2022-08-01T04:42:53;16.81;78.63
71096;DHT22;58753;49.440;11.126;2022-08-01T04:45:19;16.88;78.70
71096;DHT22;58753;49.440;11.126;2022-08-01T04:47:46;16.94;78.56
71096;DHT22;58753;49.440;11.126;2022-08-01T04:50:13;17.00;78.30
71096;DHT22;58753;49.440;11.126;2022-08-01T04:52:38;17.03;77.93
71096;DHT22;58753;49.440;11.126;2022-08-01T04:55:05;17.07;77.91
71096;DHT22;58753;49.440;11.126;2022-08-01T04:57:40;17.11;77.79
71096;DHT22;58753;49.440;11.126;2022-08-01T05:00:07;17.15;77.47
71096;DHT22;58753;49.440;11.126;2022-08-01T05:02:33;17.20;77.46
71096;DHT22;58753;49.440;11.126;2022-08-01T05:11:36;17.38;76.86
71096;DHT22;58753;49.440;11.126;2022-08-01T05:14:01;17.46;76.68
71096;DHT22;58753;49.440;11.126;2022-08-01T05:16:27;17.55;76.55
71096;DHT22;58753;49.440;11.126;2022-08-01T05:18:52;17.59;76.20
71096;DHT22;58753;49.440;11.126;2022-08-01T05:21:17;17.69;76.23
71096;DHT22;58753;49.440;11.126;2022-08-01T05:23:43;17.75;76.24
71096;DHT22;58753;49.440;11.126;2022-08-01T05:26:09;17.82;76.25
71096;DHT22;58753;49.440;11.126;2022-08-01T05:39:19;18.23;76.29
71096;DHT22;58753;49.440;11.126;2022-08-01T05:41:45;18.32;76.28
71096;DHT22;58753;49.440;11.126;2022-08-01T05:44:11;18.41;76.14
71096;DHT22;58753;49.440;11.126;2022-08-01T05:46:36;18.51;76.05
71096;DHT22;58753;49.440;11.126;2022-08-01T05:49:03;18.63;75.94
71096;DHT22;58753;49.440;11.126;2022-08-01T05:51:29;18.78;75.84
71096;DHT22;58753;49.440;11.126;2022-08-01T05:56:20;19.25;74.16
71096;DHT22;58753;49.440;11.126;2022-08-01T05:58:46;19.52;72.95
71096;DHT22;58753;49.440;11.126;2022-08-01T06:01:12;19.73;72.17
71096;DHT22;58753;49.440;11.126;2022-08-01T06:03:37;19.92;71.20
71096;DHT22;58753;49.440;11.126;2022-08-01T06:06:03;20.06;70.40
71096;DHT22;58753;49.440;11.126;2022-08-01T06:08:29;20.20;69.79
71096;DHT22;58753;49.440;11.126;2022-08-01T06:10:55;20.33;69.58
71096;DHT22;58753;49.440;11.126;2022-08-01T06:13:20;20.40;69.11
71096;DHT22;58753;49.440;11.126;2022-08-01T06:15:46;20.49;68.68
71096;DHT22;58753;49.440;11.126;2022-08-01T06:18:12;20.57;68.57
71096;DHT22;58753;49.440;11.126;2022-08-01T06:20:38;20.61;68.08
71096;DHT22;58753;49.440;11.126;2022-08-01T06:23:03;20.68;67.78
71096;DHT22;58753;49.440;11.126;2022-08-01T06:25:29;20.72;67.88
71096;DHT22;58753;49.440;11.126;2022-08-01T06:27:54;20.81;67.73
71096;DHT22;58753;49.440;11.126;2022-08-01T06:30:20;20.89;67.56
71096;DHT22;58753;49.440;11.126;2022-08-01T06:32:45;20.96;67.37
71096;DHT22;58753;49.440;11.126;2022-08-01T06:35:11;21.05;67.14
71096;DHT22;58753;49.440;11.126;2022-08-01T06:37:36;21.12;67.02
71096;DHT22;58753;49.440;11.126;2022-08-01T06:40:07;21.16;66.80
71096;DHT22;58753;49.440;11.126;2022-08-01T06:42:33;21.23;67.05
71096;DHT22;58753;49.440;11.126;2022-08-01T06:45:08;21.30;66.89
71096;DHT22;58753;49.440;11.126;2022-08-01T06:47:35;21.33;66.60
71096;DHT22;58753;49.440;11.126;2022-08-01T06:50:01;21.38;66.77
71096;DHT22;58753;49.440;11.126;2022-08-01T06:52:26;21.42;66.59
71096;DHT22;58753;49.440;11.126;2022-08-01T06:54:52;21.40;66.54
71096;DHT22;58753;49.440;11.126;2022-08-01T06:57:17;21.46;66.54
71096;DHT22;58753;49.440;11.126;2022-08-01T06:59:43;21.46;66.46
71096;DHT22;58753;49.440;11.126;2022-08-01T07:02:08;21.46;66.45
71096;DHT22;58753;49.440;11.126;2022-08-01T07:04:34;21.45;66.74
71096;DHT22;58753;49.440;11.126;2022-08-01T07:07:00;21.43;66.78
71096;DHT22;58753;49.440;11.126;2022-08-01T07:09:26;21.43;66.87
71096;DHT22;58753;49.440;11.126;2022-08-01T07:11:52;21.43;67.11
71096;DHT22;58753;49.440;11.126;2022-08-01T07:14:18;21.43;67.46
71096;DHT22;58753;49.440;11.126;2022-08-01T07:16:44;21.46;67.42
71096;DHT22;58753;49.440;11.126;2022-08-01T07:31:36;21.86;65.43
71096;DHT22;58753;49.440;11.126;2022-08-01T07:34:02;21.91;64.72
71096;DHT22;58753;49.440;11.126;2022-08-01T07:36:28;21.97;64.58
71096;DHT22;58753;49.440;11.126;2022-08-01T07:38:53;22.08;64.28
71096;DHT22;58753;49.440;11.126;2022-08-01T07:41:18;22.13;64.31
71096;DHT22;58753;49.440;11.126;2022-08-01T07:46:09;22.15;63.33
71096;DHT22;58753;49.440;11.126;2022-08-01T07:48:34;22.18;63.19
71096;DHT22;58753;49.440;11.126;2022-08-01T07:51:00;22.21;63.39
71096;DHT22;58753;49.440;11.126;2022-08-01T07:53:25;22.30;63.10
71096;DHT22;58753;49.440;11.126;2022-08-01T07:55:51;22.34;62.83
71096;DHT22;58753;49.440;11.126;2022-08-01T07:58:16;22.49;63.22
71096;DHT22;58753;49.440;11.126;2022-08-01T08:00:43;22.62;62.79
71096;DHT22;58753;49.440;11.126;2022-08-01T08:03:08;22.66;61.98
71096;DHT22;58753;49.440;11.126;2022-08-01T08:05:34;22.65;62.00
71096;DHT22;58753;49.440;11.126;2022-08-01T08:08:07;22.72;61.96
71096;DHT22;58753;49.440;11.126;2022-08-01T08:10:34;22.76;61.52
71096;DHT22;58753;49.440;11.126;2022-08-01T08:13:00;22.65;61.12
71096;DHT22;58753;49.440;11.126;2022-08-01T08:15:27;22.75;61.83
71096;DHT22;58753;49.440;11.126;2022-08-01T08:17:52;22.82;61.57
71096;DHT22;58753;49.440;11.126;2022-08-01T08:20:17;22.84;61.14
71096;DHT22;58753;49.440;11.126;2022-08-01T08:22:43;22.84;61.35
71096;DHT22;58753;49.440;11.126;2022-08-01T08:25:08;22.89;60.51
71096;DHT22;58753;49.440;11.126;2022-08-01T08:27:35;22.92;60.83
71096;DHT22;58753;49.440;11.126;2022-08-01T08:30:00;22.94;60.36
71096;DHT22;58753;49.440;11.126;2022-08-01T08:32:26;22.94;60.20
71096;DHT22;58753;49.440;11.126;2022-08-01T08:34:51;22.92;60.50
71096;DHT22;58753;49.440;11.126;2022-08-01T08:37:17;22.99;59.98
71096;DHT22;58753;49.440;11.126;2022-08-01T08:39:43;22.99;59.33
71096;DHT22;58753;49.440;11.126;2022-08-01T08:42:10;22.99;59.53
71096;DHT22;58753;49.440;11.126;2022-08-01T08:44:36;23.07;60.00
71096;DHT22;58753;49.440;11.126;2022-08-01T08:47:03;23.12;59.29
71096;DHT22;58753;49.440;11.126;2022-08-01T08:49:32;23.24;58.89
71096;DHT22;58753;49.440;11.126;2022-08-01T08:52:01;23.39;59.14
71096;DHT22;58753;49.440;11.126;2022-08-01T08:54:28;23.40;57.93
71096;DHT22;58753;49.440;11.126;2022-08-01T08:56:55;23.40;58.13
71096;DHT22;58753;49.440;11.126;2022-08-01T08:59:21;23.53;58.16
71096;DHT22;58753;49.440;11.126;2022-08-01T09:01:47;23.49;57.23
71096;DHT22;58753;49.440;11.126;2022-08-01T09:04:13;23.40;57.69
71096;DHT22;58753;49.440;11.126;2022-08-01T09:06:39;23.37;57.15
71096;DHT22;58753;49.440;11.126;2022-08-01T09:09:06;23.45;57.39
71096;DHT22;58753;49.440;11.126;2022-08-01T09:11:32;23.50;56.77
71096;DHT22;58753;49.440;11.126;2022-08-01T09:14:15;23.46;56.87
71096;DHT22;58753;49.440;11.126;2022-08-01T09:16:47;23.53;56.37
71096;DHT22;58753;49.440;11.126;2022-08-01T09:19:18;23.68;56.94
71096;DHT22;58753;49.440;11.126;2022-08-01T09:22:01;23.82;56.06
71096;DHT22;58753;49.440;11.126;2022-08-01T09:24:30;23.87;55.57
71096;DHT22;58753;49.440;11.126;2022-08-01T09:26:57;23.80;55.11
71096;DHT22;58753;49.440;11.126;2022-08-01T09:29:25;23.78;55.39
71096;DHT22;58753;49.440;11.126;2022-08-01T09:31:51;23.71;55.53
71096;DHT22;58753;49.440;11.126;2022-08-01T09:34:28;23.70;55.89
71096;DHT22;58753;49.440;11.126;2022-08-01T09:36:54;23.63;55.91
71096;DHT22;58753;49.440;11.126;2022-08-01T09:39:23;23.70;56.72
71096;DHT22;58753;49.440;11.126;2022-08-01T09:41:49;23.84;56.07
71096;DHT22;58753;49.440;11.126;2022-08-01T09:44:16;23.91;55.96
71096;DHT22;58753;49.440;11.126;2022-08-01T09:47:00;24.11;55.20
71096;DHT22;58753;49.440;11.126;2022-08-01T10:02:52;23.98;55.59
71096;DHT22;58753;49.440;11.126;2022-08-01T10:05:17;24.08;55.24
71096;DHT22;58753;49.440;11.126;2022-08-01T10:07:59;24.17;55.08
71096;DHT22;58753;49.440;11.126;2022-08-01T10:10:25;24.35;54.08
71096;DHT22;58753;49.440;11.126;2022-08-01T10:12:51;24.49;54.34
71096;DHT22;58753;49.440;11.126;2022-08-01T10:15:17;24.61;53.84
71096;DHT22;58753;49.440;11.126;2022-08-01T10:17:54;24.61;53.01
71096;DHT22;58753;49.440;11.126;2022-08-01T10:20:23;24.56;53.07
71096;DHT22;58753;49.440;11.126;2022-08-01T10:22:51;24.55;52.83
71096;DHT22;58753;49.440;11.126;2022-08-01T10:25:17;24.52;52.70
71096;DHT22;58753;49.440;11.126;2022-08-01T10:27:52;24.61;52.58
71096;DHT22;58753;49.440;11.126;2022-08-01T10:30:20;24.79;52.20
71096;DHT22;58753;49.440;11.126;2022-08-01T10:32:46;24.94;51.41
71096;DHT22;58753;49.440;11.126;2022-08-01T10:35:13;24.90;50.37
71096;DHT22;58753;49.440;11.126;2022-08-01T10:37:43;24.89;50.19
71096;DHT22;58753;49.440;11.126;2022-08-01T10:40:13;24.87;50.33
71096;DHT22;58753;49.440;11.126;2022-08-01T10:42:43;24.73;50.06
71096;DHT22;58753;49.440;11.126;2022-08-01T10:45:11;24.73;50.13
71096;DHT22;58753;49.440;11.126;2022-08-01T10:47:42;24.61;50.12
71096;DHT22;58753;49.440;11.126;2022-08-01T10:50:27;24.75;51.23
71096;DHT22;58753;49.440;11.126;2022-08-01T10:58:51;25.38;48.56
71096;DHT22;58753;49.440;11.126;2022-08-01T11:04:10;25.61;49.43
71096;DHT22;58753;49.440;11.126;2022-08-01T11:29:36;26.04;45.97
71096;DHT22;58753;49.440;11.126;2022-08-01T11:42:40;26.99;43.78
71096;DHT22;58753;49.440;11.126;2022-08-01T11:45:06;27.03;44.23
71096;DHT22;58753;49.440;11.126;2022-08-01T11:47:52;26.97;44.20
71096;DHT22;58753;49.440;11.126;2022-08-01T11:50:35;26.90;43.17
71096;DHT22;58753;49.440;11.126;2022-08-01T11:53:05;26.82;43.15
71096;DHT22;58753;49.440;11.126;2022-08-01T11:55:32;26.72;43.72
71096;DHT22;58753;49.440;11.126;2022-08-01T11:58:04;27.03;44.84
71096;DHT22;58753;49.440;11.126;2022-08-01T12:00:31;27.17;44.06
71096;DHT22;58753;49.440;11.126;2022-08-01T12:03:05;27.23;43.77
71096;DHT22;58753;49.440;11.126;2022-08-01T12:05:32;27.08;43.70
71096;DHT22;58753;49.440;11.126;2022-08-01T12:07:59;27.34;44.33
71096;DHT22;58753;49.440;11.126;2022-08-01T12:10:28;27.10;42.51
71096;DHT22;58753;49.440;11.126;2022-08-01T12:13:02;26.86;43.43
71096;DHT22;58753;49.440;11.126;2022-08-01T12:27:27;26.32;45.19
71096;DHT22;58753;49.440;11.126;2022-08-01T12:29:53;26.28;45.56
71096;DHT22;58753;49.440;11.126;2022-08-01T12:32:30;26.11;45.88
71096;DHT22;58753;49.440;11.126;2022-08-01T12:47:23;26.21;48.79
71096;DHT22;58753;49.440;11.126;2022-08-01T12:49:49;26.66;48.01
71096;DHT22;58753;49.440;11.126;2022-08-01T12:52:15;27.07;46.91
71096;DHT22;58753;49.440;11.126;2022-08-01T12:57:22;27.89;44.67
71096;DHT22;58753;49.440;11.126;2022-08-01T12:59:48;28.17;43.64
71096;DHT22;58753;49.440;11.126;2022-08-01T13:02:13;28.25;43.46
71096;DHT22;58753;49.440;11.126;2022-08-01T13:04:51;28.25;43.04
71096;DHT22;58753;49.440;11.126;2022-08-01T13:07:49;28.20;42.29
71096;DHT22;58753;49.440;11.126;2022-08-01T13:10:27;28.01;42.60
71096;DHT22;58753;49.440;11.126;2022-08-01T13:12:55;28.33;42.99
71096;DHT22;58753;49.440;11.126;2022-08-01T13:15:24;28.39;40.35
71096;DHT22;58753;49.440;11.126;2022-08-01T13:17:51;28.33;40.15
71096;DHT22;58753;49.440;11.126;2022-08-01T13:20:28;28.09;40.31
71096;DHT22;58753;49.440;11.126;2022-08-01T13:22:55;27.95;40.09
71096;DHT22;58753;49.440;11.126;2022-08-01T13:25:21;27.86;40.34
71096;DHT22;58753;49.440;11.126;2022-08-01T13:27:46;27.66;40.34
71096;DHT22;58753;49.440;11.126;2022-08-01T13:30:19;27.53;40.46
71096;DHT22;58753;49.440;11.126;2022-08-01T13:33:03;27.44;41.63
71096;DHT22;58753;49.440;11.126;2022-08-01T13:35:28;27.35;42.21
71096;DHT22;58753;49.440;11.126;2022-08-01T13:37:54;27.27;43.25
71096;DHT22;58753;49.440;11.126;2022-08-01T13:46:16;27.06;43.49
71096;DHT22;58753;49.440;11.126;2022-08-01T13:48:42;26.97;43.85
71096;DHT22;58753;49.440;11.126;2022-08-01T13:51:08;26.87;44.17
71096;DHT22;58753;49.440;11.126;2022-08-01T13:53:33;26.82;44.41
71096;DHT22;58753;49.440;11.126;2022-08-01T13:55:59;26.86;44.50
71096;DHT22;58753;49.440;11.126;2022-08-01T13:58:24;26.87;43.99
71096;DHT22;58753;49.440;11.126;2022-08-01T14:00:50;26.93;44.02
71096;DHT22;58753;49.440;11.126;2022-08-01T14:03:15;26.99;43.99
71096;DHT22;58753;49.440;11.126;2022-08-01T14:05:42;27.06;43.75
71096;DHT22;58753;49.440;11.126;2022-08-01T14:08:08;27.07;43.83
71096;DHT22;58753;49.440;11.126;2022-08-01T14:10:34;27.07;44.20
71096;DHT22;58753;49.440;11.126;2022-08-01T14:12:59;27.08;43.81
71096;DHT22;58753;49.440;11.126;2022-08-01T14:15:25;27.11;44.14
71096;DHT22;58753;49.440;11.126;2022-08-01T14:17:50;27.33;43.41
71096;DHT22;58753;49.440;11.126;2022-08-01T14:20:16;27.35;43.53
71096;DHT22;58753;49.440;11.126;2022-08-01T14:22:45;27.45;43.10
71096;DHT22;58753;49.440;11.126;2022-08-01T14:25:10;27.69;43.56
71096;DHT22;58753;49.440;11.126;2022-08-01T14:27:36;27.96;43.01
71096;DHT22;58753;49.440;11.126;2022-08-01T14:30:03;28.15;42.07
71096;DHT22;58753;49.440;11.126;2022-08-01T14:32:29;28.22;41.30
71096;DHT22;58753;49.440;11.126;2022-08-01T14:34:55;28.22;40.62
71096;DHT22;58753;49.440;11.126;2022-08-01T14:37:21;28.10;39.10
71096;DHT22;58753;49.440;11.126;2022-08-01T14:39:47;28.02;39.68
71096;DHT22;58753;49.440;11.126;2022-08-01T14:42:12;27.98;40.23
71096;DHT22;58753;49.440;11.126;2022-08-01T14:44:38;27.98;39.64
71096;DHT22;58753;49.440;11.126;2022-08-01T14:47:04;27.84;39.16
71096;DHT22;58753;49.440;11.126;2022-08-01T14:49:29;27.77;39.64
71096;DHT22;58753;49.440;11.126;2022-08-01T14:51:55;27.77;40.00
71096;DHT22;58753;49.440;11.126;2022-08-01T14:54:20;27.74;40.06
71096;DHT22;58753;49.440;11.126;2022-08-01T14:56:45;27.72;40.16
71096;DHT22;58753;49.440;11.126;2022-08-01T14:59:11;27.72;40.11
71096;DHT22;58753;49.440;11.126;2022-08-01T15:01:36;27.74;39.44
71096;DHT22;58753;49.440;11.126;2022-08-01T15:04:02;27.75;39.09
71096;DHT22;58753;49.440;11.126;2022-08-01T15:06:27;27.68;39.18
71096;DHT22;58753;49.440;11.126;2022-08-01T15:08:53;27.84;39.27
71096;DHT22;58753;49.440;11.126;2022-08-01T15:11:18;27.91;38.74
71096;DHT22;58753;49.440;11.126;2022-08-01T15:13:43;27.85;39.03
71096;DHT22;58753;49.440;11.126;2022-08-01T15:16:09;28.01;38.89
71096;DHT22;58753;49.440;11.126;2022-08-01T15:18:35;27.99;38.87
71096;DHT22;58753;49.440;11.126;2022-08-01T15:21:00;28.05;39.47
71096;DHT22;58753;49.440;11.126;2022-08-01T15:23:26;28.16;38.95
71096;DHT22;58753;49.440;11.126;2022-08-01T15:25:51;28.13;38.47
71096;DHT22;58753;49.440;11.126;2022-08-01T15:28:16;28.42;38.90
71096;DHT22;58753;49.440;11.126;2022-08-01T15:30:42;28.84;38.62
71096;DHT22;58753;49.440;11.126;2022-08-01T15:33:07;28.96;36.71
71096;DHT22;58753;49.440;11.126;2022-08-01T15:35:33;28.91;36.24
71096;DHT22;58753;49.440;11.126;2022-08-01T15:37:59;28.98;36.65
71096;DHT22;58753;49.440;11.126;2022-08-01T15:40:24;28.91;36.70
71096;DHT22;58753;49.440;11.126;2022-08-01T15:42:51;28.98;37.11
71096;DHT22;58753;49.440;11.126;2022-08-01T15:45:17;28.87;36.29
71096;DHT22;58753;49.440;11.126;2022-08-01T15:47:43;28.53;36.26
71096;DHT22;58753;49.440;11.126;2022-08-01T15:50:09;28.23;36.70
71096;DHT22;58753;49.440;11.126;2022-08-01T15:52:34;28.13;37.08
71096;DHT22;58753;49.440;11.126;2022-08-01T15:55:00;28.05;37.58
71096;DHT22;58753;49.440;11.126;2022-08-01T15:57:25;28.09;37.70
71096;DHT22;58753;49.440;11.126;2022-08-01T15:59:50;28.59;38.51
71096;DHT22;58753;49.440;11.126;2022-08-01T16:02:16;29.01;38.15
71096;DHT22;58753;49.440;11.126;2022-08-01T16:04:41;29.41;37.28
71096;DHT22;58753;49.440;11.126;2022-08-01T16:07:06;29.31;35.98
71096;DHT22;58753;49.440;11.126;2022-08-01T16:09:32;29.04;36.57
71096;DHT22;58753;49.440;11.126;2022-08-01T16:11:58;28.90;37.82
71096;DHT22;58753;49.440;11.126;2022-08-01T16:14:23;28.80;37.72
71096;DHT22;58753;49.440;11.126;2022-08-01T16:16:49;28.73;38.27
71096;DHT22;58753;49.440;11.126;2022-08-01T16:19:14;28.63;39.06
71096;DHT22;58753;49.440;11.126;2022-08-01T16:21:40;28.56;39.29
71096;DHT22;58753;49.440;11.126;2022-08-01T16:24:05;28.45;39.45
71096;DHT22;58753;49.440;11.126;2022-08-01T16:26:31;28.32;39.85
71096;DHT22;58753;49.440;11.126;2022-08-01T16:28:56;28.15;40.11
71096;DHT22;58753;49.440;11.126;2022-08-01T16:31:22;27.95;40.28
71096;DHT22;58753;49.440;11.126;2022-08-01T16:33:48;27.80;40.90
71096;DHT22;58753;49.440;11.126;2022-08-01T16:36:15;27.62;41.72
71096;DHT22;58753;49.440;11.126;2022-08-01T16:38:40;27.50;42.17
71096;DHT22;58753;49.440;11.126;2022-08-01T16:41:06;27.37;42.61
71096;DHT22;58753;49.440;11.126;2022-08-01T16:43:31;27.23;43.17
71096;DHT22;58753;49.440;11.126;2022-08-01T16:45:57;27.15;43.57
71096;DHT22;58753;49.440;11.126;2022-08-01T16:48:22;27.10;43.86
71096;DHT22;58753;49.440;11.126;2022-08-01T16:50:50;27.01;44.02
71096;DHT22;58753;49.440;11.126;2022-08-01T16:53:18;26.93;44.08
71096;DHT22;58753;49.440;11.126;2022-08-01T16:55:44;26.84;44.30
71096;DHT22;58753;49.440;11.126;2022-08-01T16:58:17;26.79;44.60
71096;DHT22;58753;49.440;11.126;2022-08-01T17:00:43;26.73;44.96
71096;DHT22;58753;49.440;11.126;2022-08-01T17:03:10;26.66;45.25
71096;DHT22;58753;49.440;11.126;2022-08-01T17:05:36;26.62;45.37
71096;DHT22;58753;49.440;11.126;2022-08-01T17:08:03;26.55;45.43
71096;DHT22;58753;49.440;11.126;2022-08-01T17:10:29;26.48;45.67
71096;DHT22;58753;49.440;11.126;2022-08-01T17:12:54;26.40;45.76
71096;DHT22;58753;49.440;11.126;2022-08-01T17:15:20;26.36;45.94
71096;DHT22;58753;49.440;11.126;2022-08-01T17:17:45;26.31;46.21
71096;DHT22;58753;49.440;11.126;2022-08-01T17:20:11;26.22;46.42
71096;DHT22;58753;49.440;11.126;2022-08-01T17:22:36;26.21;46.64
71096;DHT22;58753;49.440;11.126;2022-08-01T17:25:02;26.12;46.74
71096;DHT22;58753;49.440;11.126;2022-08-01T17:27:27;26.11;46.85
71096;DHT22;58753;49.440;11.126;2022-08-01T17:29:52;26.08;46.92
71096;DHT22;58753;49.440;11.126;2022-08-01T17:32:18;26.01;47.03
71096;DHT22;58753;49.440;11.126;2022-08-01T17:34:43;25.99;47.22
71096;DHT22;58753;49.440;11.126;2022-08-01T17:37:09;25.94;47.26
71096;DHT22;58753;49.440;11.126;2022-08-01T17:39:34;25.89;47.38
71096;DHT22;58753;49.440;11.126;2022-08-01T17:42:00;25.82;47.35
71096;DHT22;58753;49.440;11.126;2022-08-01T17:44:25;25.77;47.39
71096;DHT22;58753;49.440;11.126;2022-08-01T17:46:51;25.75;47.47
71096;DHT22;58753;49.440;11.126;2022-08-01T17:49:17;25.71;47.53
71096;DHT22;58753;49.440;11.126;2022-08-01T17:51:43;25.67;47.59
71096;DHT22;58753;49.440;11.126;2022-08-01T17:54:08;25.64;47.72
71096;DHT22;58753;49.440;11.126;2022-08-01T17:56:34;25.58;47.85
71096;DHT22;58753;49.440;11.126;2022-08-01T18:13:03;25.34;49.23